createdAt,value
2018-05-24T00:02:21.642Z,9.30
2018-05-24T00:04:49.531Z,5.77
2018-05-24T00:07:17.441Z,7.20
2018-05-24T00:09:45.322Z,4.87
2018-05-24T00:12:13.220Z,5.03
2018-05-24T00:14:41.112Z,4.33
2018-05-24T00:17:09.087Z,6.83
2018-05-24T00:19:36.574Z,4.43
2018-05-24T00:22:04.160Z,5.67
2018-05-24T00:24:32.050Z,4.80
2018-05-24T00:27:00.049Z,6.33
2018-05-24T00:29:27.936Z,4.33
2018-05-24T00:31:55.447Z,4.80
2018-05-24T00:34:22.922Z,7.63
2018-05-24T00:36:50.832Z,6.23
2018-05-24T00:39:18.317Z,7.83
2018-05-24T00:41:45.855Z,5.10
2018-05-24T00:44:13.438Z,5.73
2018-05-24T00:46:40.947Z,5.50
2018-05-24T00:49:08.832Z,6.93
2018-05-24T00:51:36.739Z,11.83
2018-05-24T00:54:04.221Z,7.77
2018-05-24T00:56:31.778Z,6.13
2018-05-24T00:58:59.267Z,5.53
2018-05-24T01:01:26.771Z,4.70
2018-05-24T01:03:54.664Z,4.40
2018-05-24T01:06:22.591Z,4.60
2018-05-24T01:08:50.074Z,6.50
2018-05-24T01:11:17.571Z,6.73
2018-05-24T01:13:45.182Z,5.03
2018-05-24T01:16:12.661Z,4.90
2018-05-24T01:18:40.162Z,6.57
2018-05-24T01:21:08.048Z,4.90
2018-05-24T01:23:35.959Z,5.67
2018-05-24T01:26:03.470Z,6.80
2018-05-24T01:28:31.035Z,6.50
2018-05-24T01:30:58.485Z,4.40
2018-05-24T01:33:25.997Z,5.13
2018-05-24T01:35:53.487Z,4.30
2018-05-24T01:38:20.996Z,5.63
2018-05-24T01:40:48.488Z,4.30
2018-05-24T01:43:16.004Z,4.33
2018-05-24T01:45:43.593Z,4.77
2018-05-24T01:48:11.108Z,4.60
2018-05-24T01:50:38.599Z,4.10
2018-05-24T01:53:06.111Z,6.10
2018-05-24T01:55:33.604Z,4.50
2018-05-24T01:58:01.119Z,5.93
2018-05-24T02:00:29.014Z,5.03
2018-05-24T02:02:57.000Z,5.63
2018-05-24T02:05:24.988Z,3.80
2018-05-24T02:07:52.490Z,4.10
2018-05-24T02:10:20.380Z,4.70
2018-05-24T02:12:48.298Z,4.27
2018-05-24T02:15:15.839Z,5.27
2018-05-24T02:17:43.359Z,3.40
2018-05-24T02:20:10.907Z,4.10
2018-05-24T02:22:38.485Z,8.23
2018-05-24T02:25:05.978Z,6.03
2018-05-24T02:27:33.867Z,4.47
2018-05-24T02:30:01.383Z,4.80
2018-05-24T02:32:28.870Z,4.23
2018-05-24T02:34:56.414Z,4.97
2018-05-24T02:37:23.912Z,6.67
2018-05-24T02:39:51.810Z,4.00
2018-05-24T02:42:19.695Z,4.20
2018-05-24T02:44:47.604Z,4.80
2018-05-24T02:47:15.496Z,8.33
2018-05-24T02:49:43.401Z,3.30
2018-05-24T02:52:10.891Z,4.13
2018-05-24T02:54:38.427Z,3.53
2018-05-24T02:57:06.013Z,3.73
2018-05-24T02:59:33.525Z,4.20
2018-05-24T03:02:01.502Z,7.43
2018-05-24T03:04:29.422Z,5.63
2018-05-24T03:06:56.918Z,4.07
2018-05-24T03:09:24.459Z,4.67
2018-05-24T03:11:52.443Z,5.33
2018-05-24T03:14:19.998Z,4.63
2018-05-24T03:16:47.461Z,4.43
2018-05-24T03:19:14.967Z,4.10
2018-05-24T03:21:42.500Z,4.90
2018-05-24T03:24:10.539Z,4.40
2018-05-24T03:26:38.023Z,3.40
2018-05-24T03:29:05.559Z,3.10
2018-05-24T03:31:33.455Z,6.47
2018-05-24T03:34:01.351Z,4.53
2018-05-24T03:36:29.236Z,5.13
2018-05-24T03:38:57.140Z,4.80
2018-05-24T03:41:25.027Z,6.67
2018-05-24T03:43:52.936Z,3.53
2018-05-24T03:46:20.477Z,3.60
2018-05-24T03:48:47.977Z,3.60
2018-05-24T03:51:15.457Z,6.30
2018-05-24T03:53:43.097Z,3.77
2018-05-24T03:56:10.611Z,3.53
2018-05-24T03:58:38.103Z,3.63
2018-05-24T04:01:17.461Z,4.10
2018-05-24T04:03:49.670Z,7.43
2018-05-24T04:06:17.246Z,5.30
2018-05-24T04:08:44.735Z,3.70
2018-05-24T04:11:12.309Z,3.37
2018-05-24T04:13:39.799Z,4.77
2018-05-24T04:16:07.312Z,5.40
2018-05-24T04:18:34.794Z,3.43
2018-05-24T04:21:02.294Z,5.07
2018-05-24T04:23:29.777Z,3.90
2018-05-24T04:25:57.282Z,5.50
2018-05-24T04:28:24.779Z,6.37
2018-05-24T04:30:52.296Z,4.63
2018-05-24T04:33:20.265Z,3.87
2018-05-24T04:35:47.775Z,3.50
2018-05-24T04:38:15.660Z,3.93
2018-05-24T04:40:43.568Z,4.10
2018-05-24T04:43:11.544Z,6.23
2018-05-24T04:45:39.126Z,5.43
2018-05-24T04:48:06.620Z,5.00
2018-05-24T04:50:34.527Z,4.63
2018-05-24T04:53:02.019Z,4.47
2018-05-24T04:55:30.535Z,4.60
2018-05-24T04:57:58.065Z,4.13
2018-05-24T05:00:25.658Z,5.23
2018-05-24T05:02:53.238Z,4.73
2018-05-24T05:05:20.827Z,5.20
2018-05-24T05:07:48.321Z,4.67
2018-05-24T05:10:15.899Z,4.70
2018-05-24T05:12:43.477Z,6.00
2018-05-24T05:15:11.076Z,5.47
2018-05-24T05:17:38.588Z,5.00
2018-05-24T05:20:06.079Z,7.50
2018-05-24T05:22:33.615Z,6.03
2018-05-24T05:25:01.109Z,7.03
2018-05-24T05:27:29.012Z,5.03
2018-05-24T05:29:56.899Z,4.80
2018-05-24T05:32:24.815Z,4.80
2018-05-24T05:34:52.308Z,4.67
2018-05-24T05:37:19.820Z,8.57
2018-05-24T05:39:47.331Z,7.60
2018-05-24T05:42:14.830Z,5.87
2018-05-24T05:44:42.765Z,6.53
2018-05-24T05:47:10.628Z,4.83
2018-05-24T05:49:38.595Z,4.93
2018-05-24T05:52:06.121Z,5.77
2018-05-24T05:54:33.649Z,5.33
2018-05-24T05:57:02.082Z,5.17
2018-05-24T05:59:30.067Z,7.70
2018-05-24T06:01:57.591Z,5.03
2018-05-24T06:04:25.088Z,5.60
2018-05-24T06:06:52.603Z,5.40
2018-05-24T06:09:20.095Z,8.23
2018-05-24T06:11:47.602Z,7.33
2018-05-24T06:14:15.575Z,8.67
2018-05-24T06:16:43.083Z,6.30
2018-05-24T06:19:10.966Z,7.83
2018-05-24T06:21:38.911Z,7.50
2018-05-24T06:24:06.387Z,8.10
2018-05-24T06:26:33.889Z,6.60
2018-05-24T06:29:01.379Z,6.83
2018-05-24T06:31:28.865Z,5.77
2018-05-24T06:33:56.376Z,6.53
2018-05-24T06:36:24.369Z,6.43
2018-05-24T06:38:52.342Z,7.67
2018-05-24T06:41:19.839Z,5.93
2018-05-24T06:43:47.849Z,7.43
2018-05-24T06:46:15.737Z,6.10
2018-05-24T06:48:43.711Z,6.93
2018-05-24T06:51:11.199Z,6.83
2018-05-24T06:53:38.803Z,6.37
2018-05-24T06:56:06.228Z,8.00
2018-05-24T06:58:33.735Z,6.83
2018-05-24T07:01:01.218Z,7.30
2018-05-24T07:03:28.727Z,7.13
2018-05-24T07:05:56.632Z,6.97
2018-05-24T07:08:24.137Z,11.57
2018-05-24T07:10:51.631Z,14.57
2018-05-24T07:13:19.144Z,7.73
2018-05-24T07:15:46.635Z,7.07
2018-05-24T07:18:14.147Z,8.03
2018-05-24T07:20:41.693Z,8.30
2018-05-24T07:23:09.203Z,6.77
2018-05-24T07:25:37.178Z,7.33
2018-05-24T07:28:04.691Z,8.20
2018-05-24T07:30:32.183Z,8.23
2018-05-24T07:32:59.751Z,7.03
2018-05-24T07:35:27.638Z,8.27
2018-05-24T07:37:55.616Z,7.83
2018-05-24T07:40:23.108Z,6.80
2018-05-24T07:42:50.999Z,7.43
2018-05-24T07:45:18.577Z,7.53
2018-05-24T07:47:46.082Z,8.10
2018-05-24T07:50:13.982Z,7.33
2018-05-24T07:52:41.473Z,7.30
2018-05-24T07:55:08.983Z,9.23
2018-05-24T07:57:36.474Z,7.90
2018-05-24T08:00:03.987Z,9.07
2018-05-24T08:02:31.471Z,9.70
2018-05-24T08:04:58.979Z,9.63
2018-05-24T08:07:26.943Z,9.80
2018-05-24T08:09:54.452Z,9.20
2018-05-24T08:12:22.340Z,9.17
2018-05-24T08:14:50.356Z,11.80
2018-05-24T08:17:18.235Z,9.30
2018-05-24T08:19:46.199Z,9.87
2018-05-24T08:22:13.696Z,11.63
2018-05-24T08:24:41.812Z,11.23
2018-05-24T08:27:09.311Z,9.73
2018-05-24T08:29:36.814Z,10.57
2018-05-24T08:32:04.321Z,9.90
2018-05-24T08:34:31.831Z,10.40
2018-05-24T08:36:59.710Z,11.00
2018-05-24T08:39:27.220Z,10.43
2018-05-24T08:41:55.182Z,11.60
2018-05-24T08:44:22.775Z,12.77
2018-05-24T08:46:50.354Z,11.10
2018-05-24T08:49:17.867Z,11.27
2018-05-24T08:51:45.755Z,11.10
2018-05-24T08:54:13.649Z,11.37
2018-05-24T08:56:41.545Z,12.80
2018-05-24T08:59:09.455Z,11.73
2018-05-24T09:01:36.955Z,11.30
2018-05-24T09:04:04.459Z,11.43
2018-05-24T09:06:31.946Z,10.53
2018-05-24T09:08:59.560Z,11.23
2018-05-24T09:11:27.470Z,11.57
2018-05-24T09:13:55.439Z,12.57
2018-05-24T09:16:23.047Z,11.30
2018-05-24T09:18:50.935Z,10.80
2018-05-24T09:21:18.835Z,12.90
2018-05-24T09:23:46.332Z,9.50
2018-05-24T09:26:13.868Z,10.70
2018-05-24T09:28:41.354Z,11.43
2018-05-24T09:31:08.930Z,10.20
2018-05-24T09:33:36.463Z,12.27
2018-05-24T09:36:03.971Z,12.20
2018-05-24T09:38:31.474Z,10.40
2018-05-24T09:40:59.075Z,11.33
2018-05-24T09:43:26.572Z,12.07
2018-05-24T09:45:54.552Z,12.30
2018-05-24T09:48:22.143Z,13.73
2018-05-24T09:50:49.652Z,12.40
2018-05-24T09:53:17.143Z,10.93
2018-05-24T09:55:44.656Z,16.33
2018-05-24T09:58:12.143Z,12.57
2018-05-24T10:00:39.654Z,12.00
2018-05-24T10:03:07.147Z,12.77
2018-05-24T10:05:35.158Z,13.33
2018-05-24T10:08:03.164Z,13.30
2018-05-24T10:10:30.780Z,12.77
2018-05-24T10:12:58.202Z,12.50
2018-05-24T10:15:25.716Z,12.97
2018-05-24T10:17:53.202Z,15.10
2018-05-24T10:20:20.773Z,11.73
2018-05-24T10:22:48.668Z,11.97
2018-05-24T10:25:16.228Z,13.17
2018-05-24T10:27:43.719Z,17.47
2018-05-24T10:30:11.214Z,12.93
2018-05-24T10:32:38.732Z,13.50
2018-05-24T10:35:06.217Z,11.97
2018-05-24T10:37:33.730Z,10.83
2018-05-24T10:40:01.330Z,12.30
2018-05-24T10:42:29.318Z,12.27
2018-05-24T10:44:57.449Z,12.40
2018-05-24T10:47:24.991Z,11.97
2018-05-24T10:49:52.588Z,12.37
2018-05-24T10:52:20.490Z,11.63
2018-05-24T10:54:48.468Z,13.20
2018-05-24T10:57:16.047Z,12.70
2018-05-24T10:59:43.543Z,17.57
2018-05-24T11:02:11.535Z,12.53
2018-05-24T11:04:39.115Z,11.07
2018-05-24T11:07:06.613Z,12.70
2018-05-24T11:09:34.583Z,12.00
2018-05-24T11:12:02.103Z,12.07
2018-05-24T11:14:29.595Z,11.97
2018-05-24T11:16:57.144Z,12.63
2018-05-24T11:19:24.653Z,12.60
2018-05-24T11:21:52.175Z,12.57
2018-05-24T11:24:19.667Z,12.37
2018-05-24T11:26:47.185Z,10.07
2018-05-24T11:29:15.076Z,11.57
2018-05-24T11:31:42.671Z,10.67
2018-05-24T11:34:10.135Z,10.17
2018-05-24T11:36:37.720Z,9.90
2018-05-24T11:39:06.152Z,9.87
2018-05-24T11:41:33.658Z,10.60
2018-05-24T11:44:01.147Z,10.37
2018-05-24T11:46:28.651Z,9.70
2018-05-24T11:48:56.144Z,12.00
2018-05-24T11:51:23.748Z,10.30
2018-05-24T11:53:51.317Z,11.40
2018-05-24T11:56:18.809Z,9.50
2018-05-24T11:58:46.395Z,9.17
2018-05-24T12:01:13.883Z,10.70
2018-05-24T12:03:41.387Z,9.27
2018-05-24T12:06:09.269Z,8.20
2018-05-24T12:08:37.188Z,8.50
2018-05-24T12:11:04.735Z,9.03
2018-05-24T12:13:32.239Z,9.47
2018-05-24T12:16:00.124Z,8.80
2018-05-24T12:18:28.016Z,9.13
2018-05-24T12:20:55.587Z,8.63
2018-05-24T12:23:23.176Z,8.60
2018-05-24T12:25:50.668Z,9.13
2018-05-24T12:28:18.648Z,8.27
2018-05-24T12:30:46.231Z,8.30
2018-05-24T12:33:13.825Z,8.80
2018-05-24T12:35:41.490Z,8.47
2018-05-24T12:38:09.399Z,7.83
2018-05-24T12:40:36.883Z,7.10
2018-05-24T12:43:04.464Z,8.43
2018-05-24T12:45:32.047Z,8.50
2018-05-24T12:47:59.626Z,7.80
2018-05-24T12:50:27.119Z,8.20
2018-05-24T12:52:54.623Z,8.53
2018-05-24T12:55:22.603Z,8.30
2018-05-24T12:57:50.128Z,7.70
2018-05-24T13:00:17.623Z,9.50
2018-05-24T13:02:45.126Z,9.20
2018-05-24T13:05:12.611Z,9.07
2018-05-24T13:07:40.121Z,9.20
2018-05-24T13:10:08.008Z,8.30
2018-05-24T13:12:35.591Z,9.83
2018-05-24T13:15:03.176Z,9.57
2018-05-24T13:17:30.759Z,9.87
2018-05-24T13:19:58.264Z,9.17
2018-05-24T13:22:26.142Z,10.07
2018-05-24T13:24:53.646Z,9.80
2018-05-24T13:27:21.557Z,10.57
2018-05-24T13:29:49.063Z,10.73
2018-05-24T13:32:16.551Z,11.37
2018-05-24T13:34:44.054Z,10.70
2018-05-24T13:37:11.642Z,11.63
2018-05-24T13:39:39.151Z,11.20
2018-05-24T13:42:07.051Z,12.07
2018-05-24T13:44:34.963Z,13.50
2018-05-24T13:47:02.464Z,12.53
2018-05-24T13:49:29.977Z,13.70
2018-05-24T13:51:57.472Z,12.10
2018-05-24T13:54:25.054Z,11.80
2018-05-24T13:56:52.547Z,11.57
2018-05-24T13:59:20.456Z,11.80
2018-05-24T14:01:48.413Z,10.43
2018-05-24T14:04:15.891Z,13.10
2018-05-24T14:06:43.384Z,10.97
2018-05-24T14:09:10.895Z,11.13
2018-05-24T14:11:38.787Z,13.00
2018-05-24T14:14:06.695Z,11.50
2018-05-24T14:16:34.230Z,11.90
2018-05-24T14:19:01.744Z,12.57
2018-05-24T14:21:29.640Z,11.10
2018-05-24T14:23:57.550Z,10.13
2018-05-24T14:26:25.039Z,10.60
2018-05-24T14:28:52.537Z,10.93
2018-05-24T14:31:20.022Z,10.57
2018-05-24T14:33:47.527Z,12.03
2018-05-24T14:36:15.019Z,11.80
2018-05-24T14:38:42.539Z,11.07
2018-05-24T14:41:10.034Z,11.47
2018-05-24T14:43:37.522Z,11.00
2018-05-24T14:46:05.028Z,12.00
2018-05-24T14:48:32.519Z,11.77
2018-05-24T14:51:00.029Z,10.73
2018-05-24T14:53:27.909Z,10.97
2018-05-24T14:55:55.422Z,11.17
2018-05-24T14:58:23.303Z,9.53
2018-05-24T15:00:51.199Z,10.97
2018-05-24T15:03:19.078Z,9.87
2018-05-24T15:05:46.583Z,10.50
2018-05-24T15:08:14.464Z,8.80
2018-05-24T15:10:42.485Z,12.00
2018-05-24T15:16:03.611Z,11.20
2018-05-24T15:18:31.111Z,10.23
2018-05-24T15:20:58.611Z,9.57
2018-05-24T15:23:26.587Z,8.43
2018-05-24T15:25:54.091Z,7.20
2018-05-24T15:28:21.974Z,6.37
2018-05-24T15:30:49.559Z,6.77
2018-05-24T15:33:17.151Z,7.20
2018-05-24T15:35:45.051Z,6.20
2018-05-24T15:38:13.019Z,6.00
2018-05-24T15:40:40.570Z,7.03
2018-05-24T15:43:08.499Z,6.70
2018-05-24T15:45:36.004Z,6.10
2018-05-24T15:48:03.884Z,6.80
2018-05-24T15:50:31.387Z,7.00
2018-05-24T15:52:58.951Z,6.43
2018-05-24T15:55:26.454Z,6.20
2018-05-24T15:57:54.343Z,6.50
2018-05-24T16:00:22.313Z,6.30
2018-05-24T16:02:49.808Z,7.00
2018-05-24T16:05:17.711Z,5.67
2018-05-24T16:07:45.594Z,6.40
2018-05-24T16:10:13.571Z,5.70
2018-05-24T16:12:41.158Z,6.53
2018-05-24T16:15:08.658Z,5.33
2018-05-24T16:17:36.557Z,5.27
2018-05-24T16:20:04.528Z,5.37
2018-05-24T16:22:32.020Z,4.33
2018-05-24T16:24:59.590Z,5.27
2018-05-24T16:27:27.091Z,5.57
2018-05-24T16:29:54.579Z,4.97
2018-05-24T16:32:22.484Z,5.53
2018-05-24T16:34:50.451Z,5.70
2018-05-24T16:37:17.945Z,6.20
2018-05-24T16:39:45.835Z,5.60
2018-05-24T16:42:13.819Z,5.73
2018-05-24T16:44:41.403Z,5.70
2018-05-24T16:47:08.908Z,5.70
2018-05-24T16:49:36.782Z,5.53
2018-05-24T16:52:04.378Z,5.90
2018-05-24T16:54:32.303Z,5.80
2018-05-24T16:57:00.255Z,5.30
2018-05-24T16:59:27.839Z,6.20
2018-05-24T17:01:55.359Z,5.67
2018-05-24T17:04:22.930Z,6.03
2018-05-24T17:06:50.900Z,6.73
2018-05-24T17:09:18.381Z,5.07
2018-05-24T17:11:45.891Z,5.77
2018-05-24T17:14:13.770Z,6.00
2018-05-24T17:16:41.671Z,5.70
2018-05-24T17:19:09.551Z,6.30
2018-05-24T17:21:37.066Z,8.43
2018-05-24T17:24:04.541Z,5.43
2018-05-24T17:26:32.095Z,5.83
2018-05-24T17:28:59.573Z,5.93
2018-05-24T17:31:27.109Z,6.67
2018-05-24T17:33:54.607Z,5.97
2018-05-24T17:36:22.117Z,6.17
2018-05-24T17:38:49.710Z,5.83
2018-05-24T17:41:17.255Z,5.60
2018-05-24T17:43:44.743Z,6.23
2018-05-24T17:46:12.415Z,6.90
2018-05-24T17:48:39.904Z,7.77
2018-05-24T17:51:07.437Z,7.90
2018-05-24T17:53:35.051Z,8.73
2018-05-24T17:56:02.611Z,8.70
2018-05-24T17:58:30.187Z,9.93
2018-05-24T18:00:57.670Z,10.13
2018-05-24T18:03:25.165Z,8.83
2018-05-24T18:05:52.655Z,11.10
2018-05-24T18:08:20.559Z,10.73
2018-05-24T18:10:48.080Z,10.20
2018-05-24T18:13:15.598Z,10.87
2018-05-24T18:15:43.204Z,10.90
2018-05-24T18:18:11.115Z,12.17
2018-05-24T18:20:38.659Z,11.87
2018-05-24T18:23:06.166Z,11.47
2018-05-24T18:25:34.162Z,12.10
2018-05-24T18:28:01.724Z,11.63
2018-05-24T18:30:29.219Z,18.00
2018-05-24T18:32:57.204Z,11.20
2018-05-24T18:35:25.196Z,10.73
2018-05-24T18:37:52.781Z,11.83
2018-05-24T18:40:20.300Z,10.80
2018-05-24T18:42:47.860Z,9.90
2018-05-24T18:45:15.832Z,11.07
2018-05-24T18:47:43.339Z,12.10
2018-05-24T18:50:11.234Z,11.43
2018-05-24T18:52:39.135Z,11.60
2018-05-24T18:55:07.024Z,10.67
2018-05-24T18:57:34.926Z,11.13
2018-05-24T19:00:02.414Z,12.60
2018-05-24T19:02:29.925Z,12.03
2018-05-24T19:04:57.415Z,11.97
2018-05-24T19:07:24.922Z,12.13
2018-05-24T19:09:52.508Z,14.17
2018-05-24T19:12:20.035Z,14.60
2018-05-24T19:14:47.568Z,14.50
2018-05-24T19:17:15.054Z,16.07
2018-05-24T19:19:42.559Z,16.27
2018-05-24T19:22:10.438Z,15.90
2018-05-24T19:24:37.943Z,16.17
2018-05-24T19:27:05.834Z,16.50
2018-05-24T19:29:33.826Z,16.80
2018-05-24T19:32:01.712Z,17.37
2018-05-24T19:34:29.701Z,17.00
2018-05-24T19:36:57.196Z,18.03
2018-05-24T19:39:25.193Z,16.07
2018-05-24T19:41:53.070Z,18.27
2018-05-24T19:44:21.068Z,18.97
2018-05-24T19:46:48.949Z,17.77
2018-05-24T19:49:16.463Z,18.63
2018-05-24T19:51:44.431Z,18.23
2018-05-24T19:54:11.948Z,19.87
2018-05-24T19:56:39.499Z,18.90
2018-05-24T19:59:07.011Z,22.40
2018-05-24T20:01:34.502Z,20.13
2018-05-24T20:04:02.043Z,18.20
2018-05-24T20:06:29.531Z,20.13
2018-05-24T20:08:57.120Z,19.03
2018-05-24T20:11:25.003Z,20.43
2018-05-24T20:13:52.507Z,19.43
2018-05-24T20:16:20.382Z,17.87
2018-05-24T20:18:47.973Z,18.57
2018-05-24T20:21:15.955Z,20.50
2018-05-24T20:23:43.467Z,18.57
2018-05-24T20:26:11.345Z,19.37
2018-05-24T20:28:39.327Z,18.53
2018-05-24T20:31:06.819Z,19.93
2018-05-24T20:33:34.395Z,20.20
2018-05-24T20:36:01.898Z,20.07
2018-05-24T20:38:29.869Z,20.70
2018-05-24T20:40:57.379Z,20.23
2018-05-24T20:43:25.360Z,20.67
2018-05-24T20:45:52.866Z,18.40
2018-05-24T20:48:20.747Z,18.43
2018-05-24T20:50:48.718Z,19.90
2018-05-24T20:53:16.223Z,18.80
2018-05-24T20:55:43.799Z,19.97
2018-05-24T20:58:11.371Z,18.93
2018-05-24T21:00:38.884Z,18.63
2018-05-24T21:03:06.767Z,20.53
2018-05-24T21:05:34.681Z,20.00
2018-05-24T21:08:02.238Z,20.77
2018-05-24T21:10:29.756Z,19.33
2018-05-24T21:12:57.256Z,20.10
2018-05-24T21:15:24.775Z,22.60
2018-05-24T21:17:52.363Z,20.17
2018-05-24T21:20:19.963Z,20.60
2018-05-24T21:22:47.539Z,20.30
2018-05-24T21:25:15.445Z,20.07
2018-05-24T21:27:43.011Z,21.00
2018-05-24T21:30:10.704Z,22.20
2018-05-24T21:32:38.215Z,19.50
2018-05-24T21:35:05.703Z,22.23
2018-05-24T21:37:33.210Z,20.70
2018-05-24T21:40:00.711Z,20.37
2018-05-24T21:42:28.232Z,21.57
2018-05-24T21:44:56.167Z,19.63
2018-05-24T21:47:23.668Z,20.70
2018-05-24T21:49:51.183Z,20.73
2018-05-24T21:52:18.696Z,20.77
2018-05-24T21:54:46.186Z,23.10
2018-05-24T21:57:13.690Z,22.63
2018-05-24T21:59:41.217Z,21.27
2018-05-24T22:02:09.134Z,22.40
2018-05-24T22:04:37.016Z,22.07
2018-05-24T22:07:04.890Z,22.37
2018-05-24T22:09:32.399Z,22.30
2018-05-24T22:11:59.960Z,23.10
2018-05-24T22:14:27.955Z,23.77
2018-05-24T22:16:55.484Z,22.03
2018-05-24T22:19:23.019Z,22.40
2018-05-24T22:21:50.507Z,22.97
2018-05-24T22:24:18.020Z,22.60
2018-05-24T22:26:45.608Z,22.80
2018-05-24T22:29:13.121Z,22.43
2018-05-24T22:31:40.616Z,21.97
2018-05-24T22:34:08.122Z,23.57
2018-05-24T22:36:35.702Z,22.17
2018-05-24T22:39:03.226Z,22.53
2018-05-24T22:41:30.779Z,22.23
2018-05-24T22:43:58.293Z,22.30
2018-05-24T22:46:25.837Z,22.97
2018-05-24T22:48:53.427Z,23.93
2018-05-24T22:51:20.959Z,24.43
2018-05-24T22:53:48.504Z,21.60
2018-05-24T22:56:16.492Z,24.67
2018-05-24T22:58:44.392Z,23.97
2018-05-24T23:01:12.290Z,24.07
2018-05-24T23:03:40.179Z,24.23
2018-05-24T23:06:08.160Z,24.83
2018-05-24T23:08:36.058Z,24.60
2018-05-24T23:11:03.645Z,24.03
2018-05-24T23:13:31.222Z,22.87
2018-05-24T23:15:58.739Z,26.33
2018-05-24T23:18:26.636Z,26.10
2018-05-24T23:20:54.147Z,27.40
2018-05-24T23:23:21.629Z,24.87
2018-05-24T23:25:49.124Z,26.80
2018-05-24T23:28:16.637Z,24.20
2018-05-24T23:30:44.224Z,25.60
2018-05-24T23:33:12.139Z,24.60
2018-05-24T23:35:40.027Z,26.30
2018-05-24T23:38:07.587Z,27.20
2018-05-24T23:40:35.079Z,25.30
2018-05-24T23:43:02.588Z,25.50
2018-05-24T23:45:30.155Z,28.40
2018-05-24T23:47:58.165Z,26.00
2018-05-24T23:50:26.133Z,27.10
2018-05-24T23:52:53.643Z,27.60
2018-05-24T23:55:21.531Z,30.67
2018-05-24T23:57:49.503Z,30.47
